createdAt,value
2024-02-21T00:02:30.411Z,14.00
2024-02-21T00:05:32.289Z,17.57
2024-02-21T00:08:34.198Z,22.70
2024-02-21T00:11:36.079Z,18.00
2024-02-21T00:14:37.761Z,17.77
2024-02-21T00:17:39.465Z,16.63
2024-02-21T00:20:41.167Z,12.90
2024-02-21T00:23:42.839Z,13.77
2024-02-21T00:26:44.592Z,18.30
2024-02-21T00:29:46.450Z,21.07
2024-02-21T00:32:48.494Z,14.70
2024-02-21T00:35:50.212Z,15.80
2024-02-21T00:38:51.839Z,26.67
2024-02-21T00:41:53.523Z,22.03
2024-02-21T00:44:55.110Z,17.27
2024-02-21T00:47:56.850Z,19.40
2024-02-21T00:50:59.299Z,22.73
2024-02-21T00:54:02.474Z,13.47
2024-02-21T00:57:04.376Z,12.50
2024-02-21T01:00:06.589Z,22.40
2024-02-21T01:03:08.318Z,15.87
2024-02-21T01:06:10.032Z,17.13
2024-02-21T01:09:15.313Z,15.90
2024-02-21T01:12:17.184Z,21.30
2024-02-21T01:15:19.277Z,18.03
2024-02-21T01:18:21.061Z,11.67
2024-02-21T01:21:22.880Z,16.30
2024-02-21T01:24:25.215Z,17.60
2024-02-21T01:27:27.068Z,14.97
2024-02-21T01:30:28.765Z,19.27
2024-02-21T01:33:35.661Z,16.43
2024-02-21T01:36:37.301Z,14.23
2024-02-21T01:39:38.975Z,18.30
2024-02-21T01:42:41.846Z,18.53
2024-02-21T01:45:43.535Z,16.20
2024-02-21T01:48:47.289Z,21.80
2024-02-21T01:51:49.556Z,17.80
2024-02-21T01:54:51.566Z,19.30
2024-02-21T01:57:53.380Z,18.23
2024-02-21T02:00:57.289Z,18.97
2024-02-21T02:04:00.805Z,19.30
2024-02-21T02:07:05.162Z,18.63
2024-02-21T02:10:07.661Z,22.10
2024-02-21T02:13:09.808Z,19.37
2024-02-21T02:16:11.788Z,14.97
2024-02-21T02:19:14.832Z,16.93
2024-02-21T02:22:26.489Z,23.23
2024-02-21T02:25:28.365Z,20.00
2024-02-21T02:28:30.269Z,17.60
2024-02-21T02:31:32.427Z,15.27
2024-02-21T02:34:34.114Z,14.77
2024-02-21T02:37:35.864Z,17.43
2024-02-21T02:40:39.036Z,20.30
2024-02-21T02:43:40.698Z,21.47
2024-02-21T02:46:42.581Z,15.70
2024-02-21T02:49:45.147Z,16.83
2024-02-21T02:52:47.296Z,16.87
2024-02-21T02:55:49.010Z,13.47
2024-02-21T02:58:50.813Z,14.30
2024-02-21T03:01:52.488Z,18.43
2024-02-21T03:04:54.468Z,23.20
2024-02-21T03:07:56.531Z,22.03
2024-02-21T03:10:58.336Z,16.73
2024-02-21T03:14:00.131Z,16.93
2024-02-21T03:17:02.298Z,17.40
2024-02-21T03:20:10.378Z,22.33
2024-02-21T03:23:12.092Z,19.20
2024-02-21T03:26:13.765Z,16.23
2024-02-21T03:29:19.016Z,21.40
2024-02-21T03:32:20.650Z,20.83
2024-02-21T03:35:22.309Z,15.20
2024-02-21T03:38:23.943Z,19.53
2024-02-21T03:41:25.570Z,20.03
2024-02-21T03:44:28.080Z,20.07
2024-02-21T03:47:29.703Z,20.60
2024-02-21T03:50:31.526Z,15.53
2024-02-21T03:53:33.581Z,15.33
2024-02-21T03:56:38.910Z,15.30
2024-02-21T03:59:44.548Z,15.70
2024-02-21T04:02:46.787Z,25.10
2024-02-21T04:05:48.465Z,20.23
2024-02-21T04:08:50.141Z,18.17
2024-02-21T04:11:52.016Z,16.40
2024-02-21T04:14:53.760Z,13.53
2024-02-21T04:17:55.421Z,16.33
2024-02-21T04:20:57.054Z,16.70
2024-02-21T04:23:59.120Z,21.63
2024-02-21T04:27:00.796Z,14.67
2024-02-21T04:30:02.501Z,15.63
2024-02-21T04:33:04.447Z,19.50
2024-02-21T04:36:06.359Z,21.30
2024-02-21T04:39:07.987Z,20.40
2024-02-21T04:42:09.586Z,14.97
2024-02-21T04:45:11.489Z,12.23
2024-02-21T04:48:13.205Z,16.60
2024-02-21T04:51:15.123Z,16.97
2024-02-21T04:54:17.144Z,13.30
2024-02-21T04:57:18.769Z,13.80
2024-02-21T05:00:20.783Z,15.63
2024-02-21T05:03:22.874Z,13.33
2024-02-21T05:06:24.776Z,13.50
2024-02-21T05:09:26.446Z,17.23
2024-02-21T05:12:28.111Z,15.00
2024-02-21T05:15:29.705Z,19.27
2024-02-21T05:18:31.530Z,24.63
2024-02-21T05:21:33.200Z,16.93
2024-02-21T05:24:34.791Z,25.50
2024-02-21T05:27:37.733Z,19.03
2024-02-21T05:30:39.796Z,17.70
2024-02-21T05:33:41.510Z,17.07
2024-02-21T05:36:43.283Z,17.90
2024-02-21T05:39:45.254Z,18.90
2024-02-21T05:42:46.981Z,17.70
2024-02-21T05:45:49.720Z,18.30
2024-02-21T05:48:51.517Z,14.13
2024-02-21T05:51:53.166Z,14.30
2024-02-21T05:54:54.946Z,21.10
2024-02-21T05:57:57.053Z,13.40
2024-02-21T06:00:58.785Z,11.30
2024-02-21T06:04:00.607Z,15.10
2024-02-21T06:07:03.087Z,14.90
2024-02-21T06:10:05.227Z,14.87
2024-02-21T06:13:06.944Z,17.40
2024-02-21T06:16:08.872Z,14.13
2024-02-21T06:19:10.799Z,14.00
2024-02-21T06:22:12.929Z,13.60
2024-02-21T06:25:14.552Z,16.33
2024-02-21T06:28:16.292Z,20.97
2024-02-21T06:31:18.822Z,32.90
2024-02-21T06:34:20.553Z,13.40
2024-02-21T06:37:22.348Z,15.13
2024-02-21T06:40:24.895Z,18.40
2024-02-21T06:43:26.723Z,14.97
2024-02-21T06:46:34.449Z,16.50
2024-02-21T06:49:38.285Z,16.07
2024-02-21T06:52:40.008Z,15.23
2024-02-21T06:55:41.782Z,12.73
2024-02-21T06:58:43.594Z,16.80
2024-02-21T07:01:54.695Z,20.33
2024-02-21T07:04:56.662Z,14.07
2024-02-21T07:07:58.425Z,13.43
2024-02-21T07:11:00.194Z,12.33
2024-02-21T07:14:01.941Z,17.83
2024-02-21T07:17:04.586Z,15.87
2024-02-21T07:20:07.015Z,13.03
2024-02-21T07:23:09.827Z,16.53
2024-02-21T07:26:11.654Z,18.17
2024-02-21T07:29:13.676Z,20.77
2024-02-21T07:32:15.382Z,15.87
2024-02-21T07:35:17.200Z,19.57
2024-02-21T07:38:19.596Z,18.73
2024-02-21T07:41:21.332Z,14.73
2024-02-21T07:44:23.002Z,10.23
2024-02-21T07:47:25.510Z,13.60
2024-02-21T07:50:27.206Z,15.93
2024-02-21T07:53:28.868Z,17.50
2024-02-21T07:56:30.671Z,10.20
2024-02-21T07:59:32.331Z,11.47
2024-02-21T08:02:33.992Z,13.63
2024-02-21T08:05:36.255Z,12.87
2024-02-21T08:08:37.941Z,12.80
2024-02-21T08:11:39.644Z,16.27
2024-02-21T08:14:41.299Z,13.90
2024-02-21T08:17:42.958Z,11.90
2024-02-21T08:20:44.687Z,10.67
2024-02-21T08:23:46.330Z,11.77
2024-02-21T08:26:47.921Z,12.87
2024-02-21T08:29:49.607Z,11.37
2024-02-21T08:32:51.569Z,13.13
2024-02-21T08:35:53.402Z,14.00
2024-02-21T08:38:55.092Z,19.20
2024-02-21T08:41:57.965Z,13.90
2024-02-21T08:44:59.888Z,13.33
2024-02-21T08:48:01.761Z,11.37
2024-02-21T08:51:03.720Z,12.60
2024-02-21T08:54:05.742Z,15.50
2024-02-21T08:57:07.422Z,11.47
2024-02-21T09:00:13.915Z,16.20
2024-02-21T09:03:16.025Z,11.20
2024-02-21T09:06:17.716Z,9.83
2024-02-21T09:09:19.336Z,13.20
2024-02-21T09:12:20.995Z,15.80
2024-02-21T09:15:22.605Z,9.10
2024-02-21T09:18:24.288Z,17.70
2024-02-21T09:21:26.007Z,9.40
2024-02-21T09:24:27.668Z,13.27
2024-02-21T09:27:29.298Z,11.70
2024-02-21T09:30:31.593Z,14.27
2024-02-21T09:33:33.719Z,10.07
2024-02-21T09:36:35.384Z,13.30
2024-02-21T09:39:37.186Z,12.40
2024-02-21T09:42:40.460Z,14.13
2024-02-21T09:45:47.250Z,12.17
2024-02-21T09:49:22.738Z,12.83
2024-02-21T09:52:26.749Z,11.87
2024-02-21T09:55:30.412Z,9.20
2024-02-21T09:58:33.212Z,16.07
2024-02-21T10:01:35.882Z,13.43
2024-02-21T10:04:37.904Z,13.70
2024-02-21T10:07:40.711Z,18.90
2024-02-21T10:10:46.976Z,13.83
2024-02-21T10:13:48.906Z,13.13
2024-02-21T10:17:00.292Z,14.17
2024-02-21T10:20:12.614Z,13.30
2024-02-21T10:23:14.487Z,10.13
2024-02-21T10:26:17.228Z,10.90
2024-02-21T10:29:19.036Z,15.60
2024-02-21T10:32:20.847Z,11.13
2024-02-21T10:35:31.479Z,13.37
2024-02-21T10:38:34.864Z,12.10
2024-02-21T10:41:38.018Z,13.53
2024-02-21T10:44:41.803Z,12.90
2024-02-21T10:47:51.300Z,13.53
2024-02-21T10:51:09.959Z,15.30
2024-02-21T10:54:35.295Z,10.90
2024-02-21T10:57:38.976Z,9.93
2024-02-21T11:00:41.445Z,8.23
2024-02-21T11:03:45.462Z,12.10
2024-02-21T11:06:48.131Z,11.37
2024-02-21T11:09:54.220Z,13.77
2024-02-21T11:13:09.389Z,9.83
2024-02-21T11:16:12.412Z,11.37
2024-02-21T11:19:26.258Z,15.00
2024-02-21T11:22:32.341Z,9.93
2024-02-21T11:25:35.143Z,10.60
2024-02-21T11:28:40.694Z,9.03
2024-02-21T11:31:44.493Z,8.73
2024-02-21T11:34:56.218Z,9.37
2024-02-21T11:38:08.273Z,12.53
2024-02-21T11:41:11.468Z,11.20
2024-02-21T11:44:14.600Z,7.63
2024-02-21T11:47:16.572Z,11.10
2024-02-21T11:50:21.647Z,11.27
2024-02-21T11:53:24.255Z,9.93
2024-02-21T11:56:27.088Z,10.60
2024-02-21T11:59:32.683Z,5.50
2024-02-21T12:02:34.449Z,9.37
2024-02-21T12:05:36.626Z,10.17
2024-02-21T12:08:45.024Z,9.00
2024-02-21T12:11:47.248Z,10.87
2024-02-21T12:14:56.813Z,11.43
2024-02-21T12:18:00.859Z,14.20
2024-02-21T12:21:02.633Z,9.60
2024-02-21T12:24:25.388Z,10.80
2024-02-21T12:27:27.636Z,9.50
2024-02-21T12:30:29.467Z,7.40
2024-02-21T12:33:32.334Z,10.10
2024-02-21T12:36:34.711Z,7.70
2024-02-21T12:39:37.694Z,7.37
2024-02-21T12:42:39.628Z,10.10
2024-02-21T12:45:41.302Z,10.30
2024-02-21T12:48:43.069Z,6.80
2024-02-21T12:51:47.544Z,7.27
2024-02-21T12:54:49.406Z,10.60
2024-02-21T12:57:51.136Z,7.23
2024-02-21T13:00:52.915Z,7.77
2024-02-21T13:03:55.288Z,7.20
2024-02-21T13:06:57.252Z,8.70
2024-02-21T13:09:59.488Z,8.43
2024-02-21T13:13:02.511Z,11.43
2024-02-21T13:16:04.584Z,9.07
2024-02-21T13:19:07.617Z,7.87
2024-02-21T13:22:10.084Z,9.70
2024-02-21T13:25:11.827Z,8.57
2024-02-21T13:28:14.379Z,5.30
2024-02-21T13:31:17.625Z,7.60
2024-02-21T13:34:19.537Z,8.63
2024-02-21T13:37:22.652Z,11.13
2024-02-21T13:40:24.509Z,8.73
2024-02-21T13:43:26.559Z,9.33
2024-02-21T13:46:28.589Z,7.17
2024-02-21T13:49:31.761Z,9.50
2024-02-21T13:52:34.644Z,7.50
2024-02-21T13:55:36.467Z,6.97
2024-02-21T13:58:38.572Z,9.17
2024-02-21T14:01:40.459Z,9.37
2024-02-21T14:04:42.192Z,11.00
2024-02-21T14:07:44.051Z,7.17
2024-02-21T14:10:45.990Z,14.10
2024-02-21T14:13:47.794Z,6.67
2024-02-21T14:16:49.615Z,4.63
2024-02-21T14:19:52.742Z,7.10
2024-02-21T14:22:54.495Z,4.87
2024-02-21T14:25:56.400Z,13.53
2024-02-21T14:28:58.725Z,6.63
2024-02-21T14:32:00.503Z,11.50
2024-02-21T14:35:05.884Z,21.93
2024-02-21T14:38:08.607Z,9.73
2024-02-21T14:41:13.409Z,7.00
2024-02-21T14:44:15.499Z,5.20
2024-02-21T14:47:17.314Z,8.30
2024-02-21T14:50:19.447Z,8.40
2024-02-21T14:53:21.169Z,4.60
2024-02-21T14:56:24.278Z,6.57
2024-02-21T14:59:33.359Z,9.50
2024-02-21T15:02:36.722Z,5.90
2024-02-21T15:05:40.437Z,10.67
2024-02-21T15:08:42.518Z,8.73
2024-02-21T15:11:44.504Z,11.73
2024-02-21T15:14:46.309Z,6.50
2024-02-21T15:17:48.023Z,7.63
2024-02-21T15:20:49.782Z,11.93
2024-02-21T15:23:51.483Z,7.50
2024-02-21T15:26:53.353Z,6.87
2024-02-21T15:29:55.909Z,10.40
2024-02-21T15:33:02.416Z,9.77
2024-02-21T15:36:04.927Z,9.77
2024-02-21T15:39:06.669Z,9.27
2024-02-21T15:42:08.677Z,6.53
2024-02-21T15:45:10.939Z,9.57
2024-02-21T15:48:14.573Z,9.40
2024-02-21T15:51:16.458Z,5.53
2024-02-21T15:54:21.484Z,9.27
2024-02-21T15:57:25.675Z,11.53
2024-02-21T16:00:27.406Z,8.60
2024-02-21T16:03:29.028Z,13.07
2024-02-21T16:06:30.810Z,9.00
2024-02-21T16:09:36.533Z,10.20
2024-02-21T16:12:42.049Z,9.30
2024-02-21T16:15:43.885Z,9.10
2024-02-21T16:18:51.225Z,11.47
2024-02-21T16:21:56.437Z,9.60
2024-02-21T16:25:18.603Z,8.47
2024-02-21T16:32:16.401Z,10.27
2024-02-21T16:35:18.322Z,8.37
2024-02-21T16:38:42.959Z,6.50
2024-02-21T16:42:15.317Z,6.53
2024-02-21T16:45:37.409Z,7.50
2024-02-21T16:48:39.370Z,8.13
2024-02-21T16:51:41.044Z,11.40
2024-02-21T16:54:43.055Z,13.73
2024-02-21T16:57:44.839Z,9.43
2024-02-21T17:00:47.727Z,4.33
2024-02-21T17:03:49.557Z,6.70
2024-02-21T17:06:52.350Z,7.47
2024-02-21T17:09:54.309Z,5.80
2024-02-21T17:12:56.567Z,7.87
2024-02-21T17:16:01.613Z,7.60
2024-02-21T17:19:06.524Z,7.37
2024-02-21T17:22:12.326Z,5.53
2024-02-21T17:25:14.551Z,6.83
2024-02-21T17:28:16.651Z,6.17
2024-02-21T17:31:20.455Z,11.17
2024-02-21T17:34:22.742Z,4.40
2024-02-21T17:37:27.985Z,8.57
2024-02-21T17:40:32.689Z,4.90
2024-02-21T17:43:40.789Z,7.50
2024-02-21T17:46:45.780Z,11.80
2024-02-21T17:49:48.423Z,5.40
2024-02-21T17:52:50.823Z,4.80
2024-02-21T17:55:52.858Z,7.30
2024-02-21T17:58:54.562Z,12.63
2024-02-21T18:01:56.302Z,8.40
2024-02-21T18:04:58.165Z,6.70
2024-02-21T18:08:07.883Z,7.67
2024-02-21T18:11:13.479Z,10.37
2024-02-21T18:14:15.666Z,8.50
2024-02-21T18:17:18.671Z,9.70
2024-02-21T18:20:21.566Z,8.67
2024-02-21T18:23:23.436Z,8.90
2024-02-21T18:26:25.085Z,9.13
2024-02-21T18:29:37.857Z,8.67
2024-02-21T18:32:42.929Z,7.53
2024-02-21T18:35:44.653Z,7.37
2024-02-21T18:38:46.566Z,5.13
2024-02-21T18:41:48.259Z,15.73
2024-02-21T18:44:51.259Z,7.20
2024-02-21T18:47:53.006Z,8.03
2024-02-21T18:50:54.961Z,6.20
2024-02-21T18:53:56.739Z,10.90
2024-02-21T18:56:58.370Z,9.93
2024-02-21T19:00:00.454Z,7.80
2024-02-21T19:03:02.134Z,6.13
2024-02-21T19:06:05.277Z,8.90
2024-02-21T19:09:07.349Z,5.17
2024-02-21T19:12:13.701Z,4.27
2024-02-21T19:15:16.723Z,5.70
2024-02-21T19:18:21.286Z,6.10
2024-02-21T19:21:23.240Z,5.73
2024-02-21T19:24:25.664Z,12.10
2024-02-21T19:27:27.325Z,7.17
2024-02-21T19:30:29.807Z,4.80
2024-02-21T19:33:31.813Z,6.53
2024-02-21T19:36:34.309Z,6.13
2024-02-21T19:39:36.040Z,4.37
2024-02-21T19:42:38.794Z,10.33
2024-02-21T19:45:40.594Z,11.47
2024-02-21T19:48:42.474Z,7.73
2024-02-21T19:51:44.212Z,7.27
2024-02-21T19:54:46.179Z,7.10
2024-02-21T19:57:48.354Z,6.57
2024-02-21T20:00:50.137Z,4.60
2024-02-21T20:03:51.825Z,7.40
2024-02-21T20:06:54.694Z,5.80
2024-02-21T20:09:56.323Z,6.03
2024-02-21T20:12:58.133Z,6.70
2024-02-21T20:15:59.819Z,7.60
2024-02-21T20:19:01.556Z,9.23
2024-02-21T20:22:03.955Z,6.20
2024-02-21T20:25:06.242Z,7.07
2024-02-21T20:28:08.024Z,7.60
2024-02-21T20:31:17.529Z,8.53
2024-02-21T20:34:19.300Z,8.00
2024-02-21T20:37:20.970Z,7.03
2024-02-21T20:40:24.222Z,7.87
2024-02-21T20:43:26.262Z,9.30
2024-02-21T20:46:28.504Z,12.20
2024-02-21T20:49:31.629Z,11.80
2024-02-21T20:52:33.755Z,10.43
2024-02-21T20:55:35.436Z,8.07
2024-02-21T20:58:37.599Z,10.23
2024-02-21T21:01:44.812Z,9.93
2024-02-21T21:04:53.034Z,19.67
2024-02-21T21:07:54.947Z,12.33
2024-02-21T21:10:56.908Z,6.80
2024-02-21T21:13:58.987Z,6.83
2024-02-21T21:17:04.424Z,7.47
2024-02-21T21:20:12.650Z,11.30
2024-02-21T21:23:14.870Z,7.33
2024-02-21T21:26:16.771Z,7.93
2024-02-21T21:29:18.627Z,6.07
2024-02-21T21:32:26.909Z,5.40
2024-02-21T21:35:28.743Z,5.37
2024-02-21T21:38:30.550Z,8.20
2024-02-21T21:41:32.598Z,8.80
2024-02-21T21:44:34.237Z,5.33
2024-02-21T21:47:36.296Z,4.40
2024-02-21T21:50:38.085Z,9.13
2024-02-21T21:53:45.082Z,5.23
2024-02-21T21:56:47.266Z,5.33
2024-02-21T21:59:49.320Z,7.57
2024-02-21T22:02:51.192Z,9.27
2024-02-21T22:05:52.925Z,4.77
2024-02-21T22:08:54.533Z,6.10
2024-02-21T22:11:56.193Z,8.20
2024-02-21T22:14:57.926Z,5.53
2024-02-21T22:18:00.981Z,5.33
2024-02-21T22:21:03.371Z,6.37
2024-02-21T22:24:05.343Z,6.43
2024-02-21T22:27:07.028Z,8.90
2024-02-21T22:30:10.399Z,6.73
2024-02-21T22:33:12.669Z,3.63
2024-02-21T22:36:20.537Z,5.63
2024-02-21T22:39:25.224Z,5.33
2024-02-21T22:42:26.880Z,3.83
2024-02-21T22:45:28.543Z,4.00
2024-02-21T22:48:30.288Z,4.17
2024-02-21T22:51:32.326Z,3.80
2024-02-21T22:54:34.306Z,3.03
2024-02-21T22:57:38.341Z,3.23
2024-02-21T23:00:40.067Z,2.50
2024-02-21T23:03:42.240Z,2.53
2024-02-21T23:06:44.017Z,5.63
2024-02-21T23:09:45.691Z,4.43
2024-02-21T23:12:47.403Z,3.10
2024-02-21T23:15:51.038Z,4.37
2024-02-21T23:18:53.866Z,3.40
2024-02-21T23:21:55.780Z,4.17
2024-02-21T23:24:57.704Z,4.60
2024-02-21T23:27:59.335Z,3.87
2024-02-21T23:31:01.051Z,7.80
2024-02-21T23:34:02.954Z,2.53
2024-02-21T23:37:04.833Z,4.57
2024-02-21T23:40:09.786Z,5.20
2024-02-21T23:43:11.496Z,4.00
2024-02-21T23:46:13.190Z,5.33
2024-02-21T23:49:15.947Z,2.97
2024-02-21T23:52:17.695Z,4.50
2024-02-21T23:55:19.377Z,6.13
2024-02-21T23:58:21.014Z,2.90
